createdAt,value
2023-02-11T00:01:12.804Z,-1.30
2023-02-11T00:03:39.397Z,-1.04
2023-02-11T00:06:05.827Z,-0.88
2023-02-11T00:08:32.470Z,-1.16
2023-02-11T00:10:59.402Z,-1.21
2023-02-11T00:13:26.044Z,-1.09
2023-02-11T00:15:52.620Z,-1.26
2023-02-11T00:18:19.126Z,-0.92
2023-02-11T00:20:45.552Z,-1.07
2023-02-11T00:23:11.975Z,-1.21
2023-02-11T00:25:38.366Z,-0.93
2023-02-11T00:28:04.952Z,-0.76
2023-02-11T00:30:31.459Z,-1.08
2023-02-11T00:32:57.851Z,-1.07
2023-02-11T00:35:24.331Z,-1.01
2023-02-11T00:37:51.349Z,-0.83
2023-02-11T00:40:17.819Z,-1.09
2023-02-11T00:42:44.384Z,-1.12
2023-02-11T00:45:10.857Z,-1.18
2023-02-11T00:47:37.303Z,-1.09
2023-02-11T00:50:03.706Z,-0.96
2023-02-11T00:52:30.311Z,-0.92
2023-02-11T00:54:56.878Z,-0.90
2023-02-11T00:57:25.350Z,-0.90
2023-02-11T00:59:51.748Z,-0.90
2023-02-11T01:02:18.486Z,-0.88
2023-02-11T01:04:44.951Z,-0.91
2023-02-11T01:07:11.496Z,-0.94
2023-02-11T01:09:40.255Z,-0.93
2023-02-11T01:12:06.839Z,-0.93
2023-02-11T01:14:33.286Z,-0.94
2023-02-11T01:16:59.641Z,-0.95
2023-02-11T01:19:26.200Z,-0.96
2023-02-11T01:21:52.751Z,-0.97
2023-02-11T01:24:19.313Z,-1.15
2023-02-11T01:26:45.740Z,-1.11
2023-02-11T01:29:12.409Z,-1.04
2023-02-11T01:31:41.060Z,-1.14
2023-02-11T01:34:07.918Z,-1.16
2023-02-11T01:36:34.389Z,-1.17
2023-02-11T01:39:01.108Z,-1.16
2023-02-11T01:41:27.706Z,-1.20
2023-02-11T01:43:54.182Z,-1.22
2023-02-11T01:46:22.888Z,-1.21
2023-02-11T01:48:49.394Z,-1.22
2023-02-11T01:51:15.789Z,-1.15
2023-02-11T01:53:42.228Z,-1.20
2023-02-11T01:56:08.768Z,-1.43
2023-02-11T01:58:35.216Z,-1.36
2023-02-11T02:01:01.720Z,-1.44
2023-02-11T02:03:28.227Z,-1.40
2023-02-11T02:05:54.903Z,-1.32
2023-02-11T02:08:21.476Z,-1.47
2023-02-11T02:10:48.022Z,-1.56
2023-02-11T02:13:14.457Z,-1.52
2023-02-11T02:15:40.959Z,-1.54
2023-02-11T02:18:07.661Z,-1.44
2023-02-11T02:20:34.110Z,-1.45
2023-02-11T02:23:01.009Z,-1.23
2023-02-11T02:25:27.495Z,-1.19
2023-02-11T02:27:53.929Z,-0.99
2023-02-11T02:30:20.431Z,-0.94
2023-02-11T02:32:46.912Z,-1.25
2023-02-11T02:35:13.320Z,-1.26
2023-02-11T02:37:40.832Z,-0.99
2023-02-11T02:40:07.251Z,-1.19
2023-02-11T02:42:33.748Z,-1.06
2023-02-11T02:45:00.221Z,-0.90
2023-02-11T02:47:26.826Z,-0.75
2023-02-11T02:49:53.239Z,-0.81
2023-02-11T02:52:19.955Z,-0.97
2023-02-11T02:54:46.379Z,-1.32
2023-02-11T02:57:12.877Z,-1.53
2023-02-11T02:59:39.385Z,-1.29
2023-02-11T03:02:05.900Z,-1.22
2023-02-11T03:04:32.450Z,-1.14
2023-02-11T03:06:58.888Z,-1.19
2023-02-11T03:09:25.473Z,-1.17
2023-02-11T03:11:51.816Z,-1.05
2023-02-11T03:14:18.323Z,-1.60
2023-02-11T03:16:44.929Z,-1.46
2023-02-11T03:19:11.298Z,-1.26
2023-02-11T03:21:37.957Z,-1.31
2023-02-11T03:24:04.598Z,-1.02
2023-02-11T03:26:31.217Z,-1.29
2023-02-11T03:28:57.610Z,-1.22
2023-02-11T03:31:24.356Z,-0.90
2023-02-11T03:33:50.906Z,-0.85
2023-02-11T03:36:17.318Z,-1.32
2023-02-11T03:38:43.714Z,-1.34
2023-02-11T03:41:10.167Z,-1.18
2023-02-11T03:43:36.560Z,-1.59
2023-02-11T03:46:03.070Z,-1.61
2023-02-11T03:48:29.817Z,-1.59
2023-02-11T03:50:56.267Z,-1.47
2023-02-11T03:53:22.697Z,-1.31
2023-02-11T03:55:49.892Z,-1.75
2023-02-11T03:58:16.545Z,-1.44
2023-02-11T04:00:42.946Z,-1.58
2023-02-11T04:03:09.573Z,-1.43
2023-02-11T04:05:36.238Z,-1.35
2023-02-11T04:08:02.665Z,-1.98
2023-02-11T04:10:31.071Z,-2.17
2023-02-11T04:12:57.762Z,-1.51
2023-02-11T04:15:24.165Z,-1.47
2023-02-11T04:17:50.628Z,-1.87
2023-02-11T04:20:18.773Z,-1.71
2023-02-11T04:22:45.137Z,-1.51
2023-02-11T04:25:11.821Z,-1.48
2023-02-11T04:27:38.289Z,-1.85
2023-02-11T04:30:04.957Z,-1.49
2023-02-11T04:32:32.509Z,-1.40
2023-02-11T04:34:59.047Z,-1.66
2023-02-11T04:37:25.627Z,-1.26
2023-02-11T04:39:52.435Z,-0.97
2023-02-11T04:42:19.200Z,-1.47
2023-02-11T04:44:47.686Z,-1.39
2023-02-11T04:47:14.518Z,-1.36
2023-02-11T04:49:41.025Z,-1.44
2023-02-11T04:52:07.388Z,-1.64
2023-02-11T04:54:33.964Z,-1.43
2023-02-11T04:57:00.800Z,-1.31
2023-02-11T04:59:27.332Z,-1.30
2023-02-11T05:01:54.238Z,-1.51
2023-02-11T05:04:20.769Z,-1.84
2023-02-11T05:06:47.448Z,-1.91
2023-02-11T05:09:13.917Z,-1.66
2023-02-11T05:11:40.440Z,-1.73
2023-02-11T05:14:07.008Z,-1.42
2023-02-11T05:16:33.557Z,-1.36
2023-02-11T05:19:00.005Z,-1.20
2023-02-11T05:21:26.458Z,-1.28
2023-02-11T05:23:52.842Z,-1.11
2023-02-11T05:26:19.310Z,-1.14
2023-02-11T05:28:45.708Z,-1.25
2023-02-11T05:31:12.217Z,-1.10
2023-02-11T05:33:38.703Z,-1.58
2023-02-11T05:36:05.135Z,-1.32
2023-02-11T05:38:31.536Z,-1.23
2023-02-11T05:40:58.038Z,-1.47
2023-02-11T05:43:24.484Z,-1.25
2023-02-11T05:45:52.298Z,-1.36
2023-02-11T05:48:19.358Z,-1.18
2023-02-11T05:50:45.871Z,-1.68
2023-02-11T05:53:12.478Z,-1.63
2023-02-11T05:55:39.177Z,-1.53
2023-02-11T05:58:05.686Z,-1.75
2023-02-11T06:00:32.052Z,-1.94
2023-02-11T06:02:58.906Z,-2.15
2023-02-11T06:05:25.498Z,-1.95
2023-02-11T06:07:51.955Z,-1.98
2023-02-11T06:10:18.383Z,-1.70
2023-02-11T06:12:44.867Z,-1.85
2023-02-11T06:15:11.351Z,-1.75
2023-02-11T06:17:37.905Z,-1.58
2023-02-11T06:20:04.362Z,-1.52
2023-02-11T06:22:30.781Z,-1.62
2023-02-11T06:25:01.792Z,-1.40
2023-02-11T06:27:28.899Z,-1.37
2023-02-11T06:29:55.357Z,-1.67
2023-02-11T06:32:42.248Z,-1.30
2023-02-11T06:35:11.766Z,-1.56
2023-02-11T06:37:38.699Z,-1.89
2023-02-11T06:40:05.418Z,-1.66
2023-02-11T06:42:31.874Z,-1.75
2023-02-11T06:44:58.449Z,-1.54
2023-02-11T06:47:25.037Z,-1.81
2023-02-11T06:49:51.478Z,-1.71
2023-02-11T06:52:17.910Z,-1.54
2023-02-11T06:54:44.879Z,-1.27
2023-02-11T06:57:11.345Z,-1.42
2023-02-11T06:59:37.909Z,-1.38
2023-02-11T07:02:04.550Z,-0.98
2023-02-11T07:04:31.142Z,-0.95
2023-02-11T07:06:58.590Z,-0.71
2023-02-11T07:09:25.481Z,-0.79
2023-02-11T07:11:52.058Z,-0.75
2023-02-11T07:14:18.878Z,-0.57
2023-02-11T07:16:45.470Z,-0.52
2023-02-11T07:19:11.917Z,-0.80
2023-02-11T07:21:38.313Z,-0.77
2023-02-11T07:24:04.942Z,-0.53
2023-02-11T07:26:31.396Z,-0.79
2023-02-11T07:28:57.917Z,-0.45
2023-02-11T07:31:24.515Z,-0.22
2023-02-11T07:33:51.139Z,-0.21
2023-02-11T07:36:19.605Z,-0.51
2023-02-11T07:38:46.038Z,-0.67
2023-02-11T07:41:12.713Z,-0.59
2023-02-11T07:43:39.306Z,-0.32
2023-02-11T07:46:05.710Z,-0.37
2023-02-11T07:48:32.399Z,-0.58
2023-02-11T07:50:58.801Z,-0.23
2023-02-11T07:53:25.748Z,-0.29
2023-02-11T07:55:52.362Z,-0.38
2023-02-11T07:58:18.968Z,-0.10
2023-02-11T08:00:45.485Z,-0.54
2023-02-11T08:03:12.892Z,-0.36
2023-02-11T08:05:39.611Z,-0.34
2023-02-11T08:08:06.041Z,-0.06
2023-02-11T08:10:32.734Z,-0.48
2023-02-11T08:12:59.244Z,-0.28
2023-02-11T08:15:26.067Z,-0.51
2023-02-11T08:17:52.596Z,-0.41
2023-02-11T08:20:22.934Z,-0.49
2023-02-11T08:22:49.330Z,-0.75
2023-02-11T08:25:15.714Z,-0.40
2023-02-11T08:27:42.402Z,-0.06
2023-02-11T08:30:08.961Z,-0.06
2023-02-11T08:32:35.526Z,-0.07
2023-02-11T08:35:02.401Z,-0.33
2023-02-11T08:37:31.372Z,-0.20
2023-02-11T08:39:59.162Z,-0.02
2023-02-11T08:42:26.359Z,-0.27
2023-02-11T08:44:52.845Z,-0.11
2023-02-11T08:47:22.211Z,-0.12
2023-02-11T08:49:48.686Z,0.01
2023-02-11T08:52:15.142Z,-0.27
2023-02-11T08:54:41.847Z,0.26
2023-02-11T08:57:08.293Z,0.10
2023-02-11T08:59:34.682Z,0.38
2023-02-11T09:02:01.659Z,0.71
2023-02-11T09:04:28.253Z,0.43
2023-02-11T09:06:54.653Z,-0.07
2023-02-11T09:09:21.051Z,-0.43
2023-02-11T09:11:47.472Z,-0.05
2023-02-11T09:14:13.914Z,-0.49
2023-02-11T09:16:40.469Z,-0.26
2023-02-11T09:19:09.947Z,0.01
2023-02-11T09:21:36.587Z,0.50
2023-02-11T09:24:03.002Z,-0.17
2023-02-11T09:26:29.412Z,0.17
2023-02-11T09:28:56.132Z,0.32
2023-02-11T09:31:23.011Z,0.27
2023-02-11T09:33:49.798Z,0.27
2023-02-11T09:36:16.206Z,0.01
2023-02-11T09:38:43.046Z,0.09
2023-02-11T09:41:09.767Z,0.09
2023-02-11T09:43:36.254Z,0.21
2023-02-11T09:46:02.684Z,0.08
2023-02-11T09:48:29.267Z,0.39
2023-02-11T09:50:55.735Z,0.03
2023-02-11T09:53:22.106Z,0.06
2023-02-11T09:55:48.602Z,-0.20
2023-02-11T09:58:15.557Z,-0.30
2023-02-11T10:00:42.087Z,-0.24
2023-02-11T10:03:08.752Z,0.35
2023-02-11T10:05:35.294Z,0.26
2023-02-11T10:08:01.933Z,0.45
2023-02-11T10:10:28.920Z,0.39
2023-02-11T10:12:55.667Z,0.33
2023-02-11T10:15:22.402Z,0.13
2023-02-11T10:17:48.799Z,0.08
2023-02-11T10:20:17.041Z,0.02
2023-02-11T10:22:43.827Z,0.35
2023-02-11T10:25:10.283Z,0.56
2023-02-11T10:27:41.395Z,0.53
2023-02-11T10:30:08.818Z,0.49
2023-02-11T10:32:35.572Z,0.78
2023-02-11T10:35:03.127Z,0.38
2023-02-11T10:37:29.585Z,0.70
2023-02-11T10:39:56.067Z,0.61
2023-02-11T10:42:22.494Z,0.14
2023-02-11T10:44:48.927Z,0.46
2023-02-11T10:47:15.634Z,0.67
2023-02-11T10:49:42.046Z,0.59
2023-02-11T10:52:08.442Z,0.32
2023-02-11T10:54:38.424Z,0.45
2023-02-11T10:57:04.850Z,0.43
2023-02-11T10:59:31.493Z,0.48
2023-02-11T11:01:58.502Z,0.94
2023-02-11T11:04:25.064Z,0.63
2023-02-11T11:06:52.553Z,0.34
2023-02-11T11:09:19.562Z,0.69
2023-02-11T11:11:45.946Z,0.73
2023-02-11T11:14:12.504Z,0.85
2023-02-11T11:16:39.116Z,1.25
2023-02-11T11:19:05.688Z,0.97
2023-02-11T11:21:32.150Z,0.54
2023-02-11T11:23:59.980Z,0.68
2023-02-11T11:26:26.517Z,1.01
2023-02-11T11:28:53.996Z,0.73
2023-02-11T11:31:21.210Z,0.89
2023-02-11T11:33:47.757Z,0.94
2023-02-11T11:36:14.641Z,1.19
2023-02-11T11:38:41.124Z,1.01
2023-02-11T11:41:08.506Z,1.27
2023-02-11T11:43:34.931Z,1.21
2023-02-11T11:46:01.672Z,1.13
2023-02-11T11:48:28.197Z,1.37
2023-02-11T11:50:55.108Z,1.38
2023-02-11T11:53:21.518Z,1.01
2023-02-11T11:55:48.525Z,1.16
2023-02-11T11:58:15.053Z,0.81
2023-02-11T12:00:41.468Z,1.20
2023-02-11T12:03:08.054Z,1.58
2023-02-11T12:05:34.697Z,1.22
2023-02-11T12:08:01.418Z,1.34
2023-02-11T12:10:28.178Z,1.44
2023-02-11T12:12:54.619Z,1.41
2023-02-11T12:15:21.092Z,1.43
2023-02-11T12:17:47.591Z,1.13
2023-02-11T12:20:16.307Z,1.29
2023-02-11T12:22:42.979Z,1.14
2023-02-11T12:25:09.786Z,1.13
2023-02-11T12:27:37.378Z,1.21
2023-02-11T12:30:03.869Z,1.19
2023-02-11T12:32:30.387Z,1.30
2023-02-11T12:34:56.907Z,1.45
2023-02-11T12:37:24.627Z,1.44
2023-02-11T12:39:51.239Z,1.13
2023-02-11T12:42:17.713Z,1.49
2023-02-11T12:44:44.203Z,1.44
2023-02-11T12:47:11.039Z,1.37
2023-02-11T12:49:37.776Z,1.73
2023-02-11T12:52:06.500Z,1.96
2023-02-11T12:54:33.354Z,1.82
2023-02-11T12:57:00.391Z,1.82
2023-02-11T12:59:26.878Z,2.17
2023-02-11T13:01:54.466Z,1.80
2023-02-11T13:04:21.246Z,1.84
2023-02-11T13:06:47.899Z,1.81
2023-02-11T13:09:14.682Z,2.16
2023-02-11T13:11:41.239Z,2.11
2023-02-11T13:14:08.828Z,2.26
2023-02-11T13:16:35.855Z,1.84
2023-02-11T13:19:02.971Z,2.11
2023-02-11T13:21:30.597Z,1.75
2023-02-11T13:23:57.157Z,1.81
2023-02-11T13:26:23.599Z,1.46
2023-02-11T13:28:49.972Z,1.44
2023-02-11T13:31:17.020Z,1.48
2023-02-11T13:33:43.696Z,1.54
2023-02-11T13:36:15.053Z,1.13
2023-02-11T13:38:41.512Z,1.42
2023-02-11T13:41:07.938Z,1.25
2023-02-11T13:43:35.487Z,1.42
2023-02-11T13:46:03.679Z,1.32
2023-02-11T13:48:31.670Z,1.40
2023-02-11T13:50:58.070Z,1.80
2023-02-11T13:53:24.479Z,1.89
2023-02-11T13:55:51.315Z,1.72
2023-02-11T13:58:17.964Z,1.97
2023-02-11T14:00:44.814Z,1.95
2023-02-11T14:03:13.508Z,1.77
2023-02-11T14:05:41.367Z,1.92
2023-02-11T14:08:09.191Z,1.97
2023-02-11T14:10:38.968Z,2.26
2023-02-11T14:13:05.824Z,2.18
2023-02-11T14:15:32.755Z,1.87
2023-02-11T14:18:01.558Z,1.57
2023-02-11T14:20:27.966Z,1.74
2023-02-11T14:22:54.530Z,1.77
2023-02-11T14:25:21.023Z,1.52
2023-02-11T14:27:47.494Z,1.75
2023-02-11T14:30:14.741Z,1.56
2023-02-11T14:32:41.631Z,1.58
2023-02-11T14:35:08.587Z,1.96
2023-02-11T14:37:35.067Z,1.56
2023-02-11T14:40:03.955Z,1.66
2023-02-11T14:42:31.016Z,1.84
2023-02-11T14:44:58.870Z,1.16
2023-02-11T14:47:26.306Z,2.00
2023-02-11T14:49:53.680Z,1.81
2023-02-11T14:52:20.632Z,1.93
2023-02-11T14:54:47.805Z,1.88
2023-02-11T14:57:14.679Z,1.76
2023-02-11T14:59:43.907Z,2.10
2023-02-11T15:02:10.613Z,2.13
2023-02-11T15:04:37.107Z,1.88
2023-02-11T15:07:05.473Z,1.68
2023-02-11T15:09:32.495Z,1.83
2023-02-11T15:12:00.179Z,2.24
2023-02-11T15:14:26.798Z,2.39
2023-02-11T15:16:54.084Z,2.32
2023-02-11T15:19:21.107Z,2.39
2023-02-11T15:21:49.052Z,2.14
2023-02-11T15:24:15.600Z,2.11
2023-02-11T15:26:42.285Z,2.02
2023-02-11T15:29:09.071Z,1.63
2023-02-11T15:31:36.437Z,1.64
2023-02-11T15:34:04.282Z,1.49
2023-02-11T15:36:32.250Z,1.91
2023-02-11T15:38:59.736Z,2.00
2023-02-11T15:41:26.802Z,2.23
2023-02-11T15:43:53.588Z,2.08
2023-02-11T15:46:22.297Z,2.30
2023-02-11T15:48:49.178Z,2.51
2023-02-11T15:51:16.588Z,2.27
2023-02-11T15:53:43.728Z,2.16
2023-02-11T15:56:10.246Z,2.05
2023-02-11T15:58:37.695Z,1.79
2023-02-11T16:01:04.652Z,1.78
2023-02-11T16:03:31.212Z,1.66
2023-02-11T16:06:02.156Z,1.83
2023-02-11T16:08:29.005Z,1.86
2023-02-11T16:10:55.995Z,1.47
2023-02-11T16:13:22.933Z,1.71
2023-02-11T16:15:49.821Z,1.80
2023-02-11T16:18:16.773Z,1.15
2023-02-11T16:20:44.267Z,1.79
2023-02-11T16:23:11.675Z,1.49
2023-02-11T16:25:41.295Z,1.44
2023-02-11T16:28:08.431Z,2.21
2023-02-11T16:30:35.040Z,2.09
2023-02-11T16:33:02.072Z,2.33
2023-02-11T16:35:29.590Z,2.46
2023-02-11T16:37:59.703Z,2.55
2023-02-11T16:40:27.762Z,2.40
2023-02-11T16:42:54.980Z,2.44
2023-02-11T16:45:22.896Z,2.33
2023-02-11T16:47:49.850Z,2.04
2023-02-11T16:50:17.445Z,1.60
2023-02-11T16:52:44.550Z,1.44
2023-02-11T16:55:11.545Z,1.63
2023-02-11T16:57:38.348Z,1.38
2023-02-11T17:00:05.272Z,1.72
2023-02-11T17:02:32.137Z,1.74
2023-02-11T17:04:59.056Z,2.27
2023-02-11T17:07:25.975Z,2.10
2023-02-11T17:09:52.492Z,1.77
2023-02-11T17:12:18.929Z,1.52
2023-02-11T17:14:46.182Z,1.64
2023-02-11T17:17:13.024Z,1.30
2023-02-11T17:19:40.869Z,1.62
2023-02-11T17:22:07.348Z,2.15
2023-02-11T17:24:35.616Z,1.91
2023-02-11T17:27:02.175Z,1.93
2023-02-11T17:29:29.609Z,1.78
2023-02-11T17:31:56.831Z,1.71
2023-02-11T17:34:23.914Z,1.87
2023-02-11T17:36:51.915Z,2.08
2023-02-11T17:39:18.846Z,2.10
2023-02-11T17:41:45.985Z,2.23
2023-02-11T17:44:13.654Z,2.00
2023-02-11T17:46:42.416Z,1.74
2023-02-11T17:49:09.398Z,1.78
2023-02-11T17:51:36.244Z,2.15
2023-02-11T17:54:03.413Z,2.05
2023-02-11T17:56:34.627Z,2.36
2023-02-11T17:59:01.520Z,2.31
2023-02-11T18:01:28.630Z,2.48
2023-02-11T18:03:55.775Z,2.36
2023-02-11T18:06:22.585Z,2.56
2023-02-11T18:08:49.466Z,2.49
2023-02-11T18:11:16.384Z,1.59
2023-02-11T18:13:43.626Z,1.99
2023-02-11T18:16:10.513Z,2.06
2023-02-11T18:18:37.487Z,2.26
2023-02-11T18:21:04.008Z,1.79
2023-02-11T18:23:31.863Z,1.95
2023-02-11T18:25:58.883Z,2.17
2023-02-11T18:28:26.111Z,2.09
2023-02-11T18:30:53.078Z,2.27
2023-02-11T18:33:21.238Z,2.35
2023-02-11T18:35:47.904Z,2.05
2023-02-11T18:38:15.016Z,2.58
2023-02-11T18:40:42.216Z,2.35
2023-02-11T18:43:09.137Z,2.17
2023-02-11T18:45:36.527Z,2.52
2023-02-11T18:48:03.524Z,2.61
2023-02-11T18:50:30.886Z,2.69
2023-02-11T18:52:58.882Z,2.53
2023-02-11T18:55:26.017Z,2.77
2023-02-11T18:57:53.062Z,2.91
2023-02-11T19:00:19.590Z,2.76
2023-02-11T19:02:46.474Z,2.54
2023-02-11T19:05:13.852Z,2.38
2023-02-11T19:07:40.392Z,1.97
2023-02-11T19:10:07.375Z,2.43
2023-02-11T19:12:35.808Z,2.60
2023-02-11T19:15:02.753Z,2.80
2023-02-11T19:17:30.542Z,2.88
2023-02-11T19:19:58.306Z,2.60
2023-02-11T19:22:24.818Z,1.81
2023-02-11T19:24:51.280Z,2.13
2023-02-11T19:27:18.285Z,2.50
2023-02-11T19:29:50.254Z,2.59
2023-02-11T19:32:17.251Z,2.53
2023-02-11T19:34:45.228Z,2.42
2023-02-11T19:37:11.847Z,2.53
2023-02-11T19:39:38.761Z,2.56
2023-02-11T19:42:06.075Z,2.47
2023-02-11T19:44:36.367Z,2.24
2023-02-11T19:47:03.879Z,2.27
2023-02-11T19:49:31.001Z,2.03
2023-02-11T19:51:59.076Z,2.24
2023-02-11T19:54:25.666Z,2.27
2023-02-11T19:56:55.457Z,2.03
2023-02-11T19:59:21.984Z,2.22
2023-02-11T20:01:49.072Z,2.20
2023-02-11T20:04:15.891Z,2.15
2023-02-11T20:06:43.017Z,2.07
2023-02-11T20:09:10.943Z,2.01
2023-02-11T20:11:37.910Z,1.94
2023-02-11T20:14:05.314Z,1.92
2023-02-11T20:16:46.882Z,1.91
2023-02-11T20:19:14.880Z,2.05
2023-02-11T20:21:42.614Z,1.99
2023-02-11T20:24:10.563Z,2.22
2023-02-11T20:26:37.651Z,1.76
2023-02-11T20:29:06.347Z,1.88
2023-02-11T20:31:33.159Z,2.29
2023-02-11T20:34:00.150Z,2.14
2023-02-11T20:36:27.346Z,2.25
2023-02-11T20:38:54.283Z,2.43
2023-02-11T20:41:21.198Z,2.57
2023-02-11T20:43:47.720Z,2.15
2023-02-11T20:46:15.665Z,2.37
2023-02-11T20:48:44.854Z,2.12
2023-02-11T20:51:12.129Z,2.33
2023-02-11T20:53:39.164Z,2.23
2023-02-11T20:56:06.089Z,2.52
2023-02-11T20:58:32.572Z,2.47
2023-02-11T21:01:00.156Z,2.29
2023-02-11T21:03:27.108Z,2.20
2023-02-11T21:05:54.851Z,2.58
2023-02-11T21:08:23.778Z,2.26
2023-02-11T21:10:50.675Z,2.30
2023-02-11T21:13:18.675Z,2.27
2023-02-11T21:15:45.945Z,1.76
2023-02-11T21:18:13.229Z,2.19
2023-02-11T21:20:40.798Z,1.92
2023-02-11T21:23:09.993Z,1.93
2023-02-11T21:25:37.209Z,2.17
2023-02-11T21:28:03.861Z,2.45
2023-02-11T21:30:30.885Z,2.50
2023-02-11T21:32:57.940Z,2.04
2023-02-11T21:35:24.463Z,2.31
2023-02-11T21:37:51.222Z,1.87
2023-02-11T21:40:17.967Z,2.09
2023-02-11T21:42:45.025Z,1.63
2023-02-11T21:45:11.929Z,1.93
2023-02-11T21:47:39.158Z,2.05
2023-02-11T21:50:06.670Z,1.76
2023-02-11T21:52:33.774Z,1.91
2023-02-11T21:55:00.808Z,1.67
2023-02-11T21:57:27.814Z,2.22
2023-02-11T21:59:54.332Z,2.52
2023-02-11T22:02:20.881Z,2.23
2023-02-11T22:04:47.728Z,2.19
2023-02-11T22:07:14.549Z,2.24
2023-02-11T22:09:40.932Z,2.23
2023-02-11T22:12:07.587Z,2.21
2023-02-11T22:14:34.033Z,2.23
2023-02-11T22:17:00.476Z,1.94
2023-02-11T22:19:27.597Z,1.99
2023-02-11T22:21:54.053Z,1.74
2023-02-11T22:24:21.396Z,1.85
2023-02-11T22:26:47.834Z,2.02
2023-02-11T22:29:14.384Z,1.70
2023-02-11T22:31:40.866Z,1.82
2023-02-11T22:34:07.558Z,2.21
2023-02-11T22:36:34.569Z,2.22
2023-02-11T22:39:01.050Z,1.98
2023-02-11T22:41:27.431Z,2.05
2023-02-11T22:43:53.925Z,2.04
2023-02-11T22:46:20.572Z,1.92
2023-02-11T22:48:47.203Z,1.96
2023-02-11T22:51:13.734Z,1.85
2023-02-11T22:53:40.186Z,1.62
2023-02-11T22:56:07.166Z,1.69
2023-02-11T22:58:33.713Z,1.93
2023-02-11T23:01:00.273Z,2.40
2023-02-11T23:03:26.867Z,2.32
2023-02-11T23:05:53.740Z,2.13
2023-02-11T23:08:20.296Z,2.03
2023-02-11T23:10:46.685Z,2.12
2023-02-11T23:13:13.083Z,1.84
2023-02-11T23:15:39.688Z,1.85
2023-02-11T23:18:06.621Z,1.92
2023-02-11T23:20:33.435Z,1.99
2023-02-11T23:22:59.867Z,2.04
2023-02-11T23:25:26.337Z,1.57
2023-02-11T23:27:52.843Z,2.04
2023-02-11T23:30:19.539Z,2.24
2023-02-11T23:32:45.979Z,1.88
2023-02-11T23:35:12.380Z,2.29
2023-02-11T23:37:39.068Z,1.70
2023-02-11T23:40:07.513Z,2.43
2023-02-11T23:42:34.136Z,2.47
2023-02-11T23:45:00.779Z,2.58
2023-02-11T23:47:27.144Z,2.24
2023-02-11T23:49:55.213Z,2.01
2023-02-11T23:52:21.653Z,2.49
2023-02-11T23:54:48.216Z,2.54
2023-02-11T23:57:14.718Z,2.46
2023-02-11T23:59:43.169Z,2.58
